Time;durP1;ratioP1;P1;durP2;ratioP2;P2;SDS_P1;SDS_P2;PMS_P1;PMS_P2;Temp;Humidity;BMP_temperature;BMP_pressure;BME280_temperature;BME280_humidity;BME280_pressure;Samples;Min_cycle;Max_cycle;Signal;HPM_P1;HPM_P2
2022/12/08 00:01:48;;;;;;;;;2.00;2.00;;;;;5.17;78.18;101031.66;5027509;28;11047;-65
2022/12/08 00:04:15;;;;;;;;;2.25;1.50;;;;;5.15;77.99;101027.47;5052746;28;11506;-65
2022/12/08 00:09:34;;;;;;;;;1.00;1.00;;;;;5.19;78.47;101018.16;5051241;28;11017;-65
2022/12/08 00:12:06;;;;;;;;;3.00;1.00;;;;;5.19;78.67;101020.84;5066241;28;11232;-65
2022/12/08 00:14:41;;;;;;;;;1.25;1.00;;;;;5.21;78.54;101022.34;5050216;28;11172;-66
2022/12/08 00:17:09;;;;;;;;;1.00;1.00;;;;;5.24;78.32;101015.88;5055092;28;11000;-65
2022/12/08 00:19:38;;;;;;;;;4.00;1.50;;;;;5.24;78.35;101013.19;5054778;28;11226;-65
2022/12/08 00:22:05;;;;;;;;;5.25;5.25;;;;;5.20;78.28;100993.16;5055215;28;11114;-64
2022/12/08 00:24:37;;;;;;;;;1.00;0.00;;;;;5.13;78.66;100992.09;5040259;28;11216;-65
2022/12/08 00:27:03;;;;;;;;;0.00;0.00;;;;;5.12;78.77;100996.59;5036943;28;11050;-65
2022/12/08 00:29:30;;;;;;;;;0.50;0.00;;;;;5.11;78.55;101000.25;5023002;28;10997;-65
2022/12/08 00:31:56;;;;;;;;;0.00;0.00;;;;;5.09;78.75;100983.56;5041267;28;11130;-65
2022/12/08 00:34:23;;;;;;;;;0.50;0.00;;;;;5.05;78.97;100982.19;5044279;28;10943;-66
2022/12/08 00:36:49;;;;;;;;;0.00;0.00;;;;;5.02;78.74;100970.97;5057751;28;11738;-65
2022/12/08 00:39:16;;;;;;;;;1.00;1.00;;;;;5.00;78.95;100964.97;5034475;28;11106;-66
2022/12/08 00:44:28;;;;;;;;;0.50;0.00;;;;;5.02;78.95;100976.31;5043027;28;10972;-65
2022/12/08 00:46:54;;;;;;;;;0.00;0.00;;;;;5.03;79.34;100983.34;5055965;28;11106;-64
2022/12/08 00:49:21;;;;;;;;;0.00;0.00;;;;;5.00;79.01;100978.31;5051600;28;11073;-66
2022/12/08 00:51:48;;;;;;;;;2.00;0.00;;;;;4.99;79.27;100966.81;5034077;28;11314;-65
2022/12/08 00:54:15;;;;;;;;;1.00;0.75;;;;;5.00;79.29;100960.47;5044977;28;11729;-65
2022/12/08 00:56:41;;;;;;;;;1.00;0.00;;;;;5.08;79.37;100963.22;5047123;28;11101;-65
2022/12/08 00:59:08;;;;;;;;;0.00;0.00;;;;;5.11;79.22;100965.56;5053624;28;11125;-65
2022/12/08 01:01:35;;;;;;;;;0.25;0.00;;;;;5.11;78.72;100962.91;5053903;28;11020;-66
2022/12/08 01:04:07;;;;;;;;;0.00;0.00;;;;;5.10;78.71;100955.88;5016616;28;11204;-66
2022/12/08 01:06:34;;;;;;;;;1.00;0.75;;;;;5.11;78.67;100954.91;5032279;28;11254;-66
2022/12/08 01:09:02;;;;;;;;;0.00;0.00;;;;;5.11;78.61;100957.56;5043655;28;11022;-65
2022/12/08 01:11:28;;;;;;;;;0.00;0.00;;;;;5.10;78.77;100958.53;5054104;28;10955;-66
2022/12/08 01:13:55;;;;;;;;;0.50;0.00;;;;;5.07;79.02;100948.19;5051494;28;11134;-65
2022/12/08 01:16:27;;;;;;;;;0.00;0.00;;;;;5.11;79.06;100946.06;5055772;28;11849;-66
2022/12/08 01:18:55;;;;;;;;;0.00;0.00;;;;;5.12;78.51;100945.91;5059421;28;10946;-65
2022/12/08 01:21:21;;;;;;;;;0.50;0.00;;;;;5.11;78.78;100943.41;5039019;28;11055;-65
2022/12/08 01:23:48;;;;;;;;;0.00;0.00;;;;;5.13;78.46;100944.88;5055488;28;11123;-65
2022/12/08 01:26:16;;;;;;;;;0.00;0.00;;;;;5.14;78.59;100946.56;5052188;28;11098;-66
2022/12/08 01:28:43;;;;;;;;;0.00;0.00;;;;;5.13;78.54;100950.22;5056964;28;11077;-66
2022/12/08 01:31:18;;;;;;;;;1.00;0.00;;;;;5.12;78.81;100943.22;5035459;28;11042;-65
2022/12/08 01:33:46;;;;;;;;;0.00;0.00;;;;;5.12;78.68;100945.91;5033923;28;11272;-66
2022/12/08 01:36:20;;;;;;;;;0.00;0.00;;;;;5.10;78.80;100942.53;5028813;28;11864;-65
2022/12/08 01:38:46;;;;;;;;;0.00;0.00;;;;;5.08;78.73;100944.53;5047249;28;11069;-65
2022/12/08 01:41:18;;;;;;;;;0.00;0.00;;;;;5.06;78.56;100941.16;5060782;28;10888;-65
2022/12/08 01:44:01;;;;;;;;;0.00;0.00;;;;;5.05;78.50;100952.84;5030908;28;11069;-65
2022/12/08 01:46:30;;;;;;;;;0.00;0.00;;;;;5.02;78.55;100945.13;5057417;28;10927;-64
2022/12/08 01:49:16;;;;;;;;;0.00;0.00;;;;;5.03;78.54;100946.84;5044742;28;11033;-64
2022/12/08 01:51:53;;;;;;;;;0.00;0.00;;;;;5.03;78.90;100940.66;5052623;28;11068;-65
2022/12/08 01:54:25;;;;;;;;;0.00;0.00;;;;;5.06;78.53;100940.34;5045752;28;11117;-65
2022/12/08 01:56:59;;;;;;;;;0.00;0.00;;;;;5.03;78.56;100936.16;5037081;28;11095;-66
2022/12/08 01:59:27;;;;;;;;;0.00;0.00;;;;;5.05;78.61;100936.00;5038062;28;11236;-65
2022/12/08 02:01:54;;;;;;;;;1.00;1.00;;;;;5.03;78.40;100928.16;5053243;28;11275;-65
2022/12/08 02:04:20;;;;;;;;;0.00;0.00;;;;;5.00;78.77;100927.63;5035722;28;11034;-65
2022/12/08 02:06:48;;;;;;;;;0.50;0.00;;;;;5.02;78.81;100920.28;5055587;28;11196;-65
2022/12/08 02:09:15;;;;;;;;;0.00;0.00;;;;;5.04;79.23;100921.81;5046844;28;11010;-65
2022/12/08 02:11:41;;;;;;;;;0.00;0.00;;;;;5.05;78.68;100925.31;5055429;28;11308;-65
2022/12/08 02:14:12;;;;;;;;;0.00;0.00;;;;;5.04;78.62;100918.31;5039959;28;11274;-65
2022/12/08 02:16:49;;;;;;;;;0.00;0.00;;;;;5.03;79.17;100914.00;5036438;28;11118;-65
2022/12/08 02:19:38;;;;;;;;;0.00;0.00;;;;;5.04;79.33;100918.31;5059947;28;12197;-65
2022/12/08 02:22:23;;;;;;;;;0.00;0.00;;;;;5.05;79.21;100931.50;5019258;28;11060;-65
2022/12/08 02:25:13;;;;;;;;;0.00;0.00;;;;;5.06;79.23;100935.00;5042617;28;11025;-65
2022/12/08 02:27:40;;;;;;;;;0.00;0.00;;;;;4.84;77.66;100925.69;5049653;28;11906;-65
2022/12/08 02:30:21;;;;;;;;;0.00;0.00;;;;;4.79;79.17;100911.97;5042490;28;11103;-64
2022/12/08 02:32:59;;;;;;;;;0.00;0.00;;;;;4.83;79.49;100910.69;5058846;28;10984;-65
2022/12/08 02:35:42;;;;;;;;;0.00;0.00;;;;;4.86;79.31;100900.53;5041357;28;10915;-66
2022/12/08 02:38:15;;;;;;;;;0.00;0.00;;;;;4.92;79.45;100893.72;5059119;28;11015;-65
2022/12/08 02:41:15;;;;;;;;;0.00;0.00;;;;;4.95;79.30;100891.59;5038392;28;11092;-65
2022/12/08 02:43:59;;;;;;;;;0.00;0.00;;;;;4.94;79.12;100887.25;5024697;28;10995;-65
2022/12/08 02:46:54;;;;;;;;;0.00;0.00;;;;;4.96;79.09;100887.09;5060153;28;11095;-65
2022/12/08 02:49:27;;;;;;;;;0.00;0.00;;;;;4.96;79.06;100885.25;5049638;28;10995;-66
2022/12/08 02:52:04;;;;;;;;;0.00;0.00;;;;;4.95;79.08;100878.25;5043960;28;10945;-65
2022/12/08 02:54:32;;;;;;;;;0.00;0.00;;;;;4.96;78.84;100879.09;5042911;28;11066;-66
2022/12/08 02:57:14;;;;;;;;;0.00;0.00;;;;;4.96;78.80;100871.91;5048567;28;11824;-65
2022/12/08 03:00:08;;;;;;;;;0.00;0.00;;;;;4.99;78.76;100867.28;5053524;28;12254;-65
2022/12/08 03:03:05;;;;;;;;;0.00;0.00;;;;;5.01;79.17;100866.09;5050491;28;11057;-65
2022/12/08 03:06:00;;;;;;;;;0.00;0.00;;;;;5.03;78.80;100861.47;5041494;28;10923;-65
2022/12/08 03:08:38;;;;;;;;;0.00;0.00;;;;;5.05;79.18;100855.97;5036428;28;11109;-66
2022/12/08 03:11:19;;;;;;;;;0.00;0.00;;;;;5.08;78.82;100871.66;5057036;28;11103;-65
2022/12/08 03:13:50;;;;;;;;;1.00;0.00;;;;;5.08;79.13;100874.31;5040319;28;11238;-65
2022/12/08 03:16:23;;;;;;;;;0.00;0.00;;;;;5.04;78.98;100872.97;5046406;28;10935;-65
2022/12/08 03:19:04;;;;;;;;;0.00;0.00;;;;;5.04;79.02;100868.47;5041798;23;11040;-65
2022/12/08 03:21:34;;;;;;;;;0.00;0.00;;;;;5.02;78.81;100862.44;5063258;28;10854;-69
2022/12/08 03:24:06;;;;;;;;;1.00;0.00;;;;;4.96;79.44;100853.25;5055912;28;11663;-66
2022/12/08 03:26:47;;;;;;;;;0.00;0.00;;;;;4.93;79.08;100842.06;5066243;28;10901;-67
2022/12/08 03:29:14;;;;;;;;;0.00;0.00;;;;;4.93;79.24;100848.22;5062147;28;11046;-65
2022/12/08 03:31:48;;;;;;;;;0.50;0.00;;;;;4.95;79.49;100840.91;5043879;28;10909;-68
2022/12/08 03:34:16;;;;;;;;;0.00;0.00;;;;;4.97;79.65;100833.56;5049176;28;11132;-66
2022/12/08 03:36:44;;;;;;;;;0.00;0.00;;;;;5.00;78.90;100834.25;5049365;28;11912;-67
2022/12/08 03:39:11;;;;;;;;;0.00;0.00;;;;;5.03;79.27;100817.94;5055062;28;10936;-66
2022/12/08 03:41:37;;;;;;;;;0.00;0.00;;;;;5.05;79.07;100829.28;5051416;28;11021;-66
2022/12/08 03:44:04;;;;;;;;;0.00;0.00;;;;;5.07;78.82;100821.97;5048055;28;10943;-66
2022/12/08 03:46:30;;;;;;;;;0.00;0.00;;;;;5.08;79.06;100820.97;5046978;28;11537;-66
2022/12/08 03:48:57;;;;;;;;;0.00;0.00;;;;;5.07;78.76;100814.81;5049889;28;11002;-67
2022/12/08 03:51:24;;;;;;;;;0.00;0.00;;;;;5.07;79.15;100820.13;5052037;28;11024;-69
2022/12/08 03:53:50;;;;;;;;;0.00;0.00;;;;;5.09;78.87;100807.47;5055552;28;11086;-67
2022/12/08 03:56:35;;;;;;;;;0.00;0.00;;;;;5.12;79.44;100800.97;5057038;28;11096;-67
2022/12/08 03:59:02;;;;;;;;;0.00;0.00;;;;;5.13;79.25;100808.81;5051463;28;10871;-66
2022/12/08 04:01:28;;;;;;;;;0.00;0.00;;;;;5.12;79.12;100801.81;5047885;28;11798;-65
2022/12/08 04:03:55;;;;;;;;;0.00;0.00;;;;;5.12;79.09;100798.31;5049548;28;11068;-66
2022/12/08 04:06:22;;;;;;;;;0.00;0.00;;;;;5.11;79.11;100808.16;5033544;28;11089;-66
2022/12/08 04:08:49;;;;;;;;;0.00;0.00;;;;;5.12;78.77;100814.31;5042472;28;11071;-66
2022/12/08 04:11:17;;;;;;;;;0.00;0.00;;;;;5.13;78.91;100819.47;5045957;28;10928;-67
2022/12/08 04:13:44;;;;;;;;;0.00;0.00;;;;;5.13;79.00;100821.31;5053445;28;11057;-67
2022/12/08 04:16:16;;;;;;;;;0.00;0.00;;;;;5.12;78.88;100825.00;5039217;28;11637;-67
2022/12/08 04:18:43;;;;;;;;;0.00;0.00;;;;;5.04;79.13;100823.13;5040223;28;11246;-65
2022/12/08 04:21:10;;;;;;;;;0.00;0.00;;;;;4.89;79.09;100830.84;5051598;28;11871;-67
2022/12/08 04:23:36;;;;;;;;;0.00;0.00;;;;;4.69;78.86;100826.72;5055916;28;10998;-67
2022/12/08 04:26:04;;;;;;;;;0.00;0.00;;;;;4.56;79.58;100826.31;5045565;28;12576;-65
2022/12/08 04:28:30;;;;;;;;;0.00;0.00;;;;;4.59;80.00;100818.00;5045858;28;11048;-67
2022/12/08 04:30:57;;;;;;;;;0.25;0.00;;;;;4.55;79.35;100817.47;5055416;28;11068;-67
2022/12/08 04:33:23;;;;;;;;;0.00;0.00;;;;;4.50;79.37;100809.13;5056976;28;10957;-67
2022/12/08 04:35:50;;;;;;;;;0.00;0.00;;;;;4.52;79.44;100803.63;5044918;28;11112;-67
2022/12/08 04:38:16;;;;;;;;;0.00;0.00;;;;;4.51;79.75;100804.63;5045352;28;12567;-67
2022/12/08 04:40:43;;;;;;;;;0.00;0.00;;;;;4.50;79.62;100809.13;5046611;28;11010;-68
2022/12/08 04:43:10;;;;;;;;;0.00;0.00;;;;;4.50;79.34;100808.25;5052349;28;11096;-66
2022/12/08 04:45:39;;;;;;;;;0.00;0.00;;;;;4.56;79.92;100812.97;5060072;28;11074;-66
2022/12/08 04:48:06;;;;;;;;;0.00;0.00;;;;;4.61;79.79;100811.50;5053824;28;11031;-67
2022/12/08 04:50:32;;;;;;;;;0.00;0.00;;;;;4.65;79.73;100807.53;5050116;28;11780;-67
2022/12/08 04:52:59;;;;;;;;;0.00;0.00;;;;;4.70;79.27;100809.75;5045970;28;11194;-68
2022/12/08 04:55:25;;;;;;;;;0.00;0.00;;;;;4.71;79.48;100798.94;5045562;28;10917;-68
2022/12/08 04:57:52;;;;;;;;;0.00;0.00;;;;;4.75;79.50;100807.44;5057139;28;11082;-68
2022/12/08 05:00:18;;;;;;;;;0.00;0.00;;;;;4.77;79.36;100804.63;5042177;28;11136;-67
2022/12/08 05:02:45;;;;;;;;;0.00;0.00;;;;;4.79;79.22;100805.31;5055064;28;11088;-67
2022/12/08 05:05:11;;;;;;;;;0.00;0.00;;;;;4.80;79.20;100793.63;5042475;28;11015;-67
2022/12/08 05:07:38;;;;;;;;;0.00;0.00;;;;;4.79;79.08;100797.31;5052062;28;11909;-67
2022/12/08 05:10:05;;;;;;;;;0.00;0.00;;;;;4.75;79.50;100790.63;5055728;28;11090;-67
2022/12/08 05:12:32;;;;;;;;;0.00;0.00;;;;;4.77;79.70;100789.44;5048799;28;11009;-68
2022/12/08 05:14:59;;;;;;;;;0.00;0.00;;;;;4.80;79.45;100788.31;5053064;28;11025;-66
2022/12/08 05:17:25;;;;;;;;;0.00;0.00;;;;;4.81;79.22;100792.63;5051023;28;11128;-67
2022/12/08 05:19:52;;;;;;;;;0.00;0.00;;;;;4.83;79.94;100788.84;5047165;28;10981;-68
2022/12/08 05:22:18;;;;;;;;;0.00;0.00;;;;;4.85;80.04;100791.31;5048092;28;13481;-67
2022/12/08 05:24:44;;;;;;;;;0.00;0.00;;;;;4.83;79.59;100788.84;5051202;28;11084;-67
2022/12/08 05:27:13;;;;;;;;;0.50;0.00;;;;;4.83;79.35;100788.00;5054950;28;11694;-67
2022/12/08 05:29:40;;;;;;;;;0.00;0.00;;;;;4.81;79.45;100785.47;5052116;28;11228;-66
2022/12/08 05:32:06;;;;;;;;;0.00;0.00;;;;;4.84;79.37;100789.66;5056812;28;11076;-67
2022/12/08 05:34:33;;;;;;;;;0.00;0.00;;;;;4.82;79.68;100789.84;5050457;28;12538;-67
2022/12/08 05:36:59;;;;;;;;;0.00;0.00;;;;;4.83;79.60;100786.16;5051497;28;11102;-65
2022/12/08 05:39:26;;;;;;;;;0.00;0.00;;;;;4.81;79.54;100789.97;5044428;28;11236;-68
2022/12/08 05:41:52;;;;;;;;;1.00;0.00;;;;;4.82;80.06;100791.63;5049742;28;11015;-68
2022/12/08 05:44:18;;;;;;;;;0.00;0.00;;;;;4.80;79.50;100798.97;5053348;28;11045;-67
2022/12/08 05:46:45;;;;;;;;;0.00;0.00;;;;;4.77;79.67;100785.94;5053569;28;11193;-68
2022/12/08 05:49:11;;;;;;;;;0.00;0.00;;;;;4.76;79.98;100781.63;5049728;28;11214;-66
2022/12/08 05:51:38;;;;;;;;;0.00;0.00;;;;;4.73;79.93;100780.09;5049521;28;11039;-67
2022/12/08 05:54:04;;;;;;;;;0.00;0.00;;;;;4.70;80.23;100778.59;5051051;28;10979;-68
2022/12/08 05:56:30;;;;;;;;;0.00;0.00;;;;;4.71;79.78;100771.44;5043715;28;11177;-67
2022/12/08 05:58:57;;;;;;;;;0.00;0.00;;;;;4.67;79.51;100772.75;5055790;28;11806;-66
2022/12/08 06:01:26;;;;;;;;;0.00;0.00;;;;;4.64;80.11;100765.88;5051831;28;11076;-66
2022/12/08 06:03:53;;;;;;;;;0.00;0.00;;;;;4.63;80.05;100766.88;5054727;28;11221;-66
2022/12/08 06:06:19;;;;;;;;;0.00;0.00;;;;;4.64;80.24;100770.38;5051205;28;11162;-67
2022/12/08 06:08:46;;;;;;;;;0.00;0.00;;;;;4.62;79.65;100764.38;5045205;28;11157;-66
2022/12/08 06:11:24;;;;;;;;;0.00;0.00;;;;;4.62;79.68;100759.06;5050233;28;10957;-67
2022/12/08 06:13:51;;;;;;;;;0.00;0.00;;;;;4.59;80.11;100765.53;5050957;28;11066;-67
2022/12/08 06:16:18;;;;;;;;;0.00;0.00;;;;;4.61;80.05;100763.53;5051541;28;11037;-67
2022/12/08 06:18:45;;;;;;;;;0.75;0.00;;;;;4.63;79.91;100763.38;5047476;28;11180;-66
2022/12/08 06:21:13;;;;;;;;;0.00;0.00;;;;;4.61;80.26;100757.34;5035703;28;11106;-68
2022/12/08 06:23:40;;;;;;;;;0.00;0.00;;;;;4.60;80.35;100761.03;5051927;28;11694;-68
2022/12/08 06:26:10;;;;;;;;;0.00;0.00;;;;;4.60;80.09;100766.34;5047774;28;11171;-67
2022/12/08 06:28:39;;;;;;;;;1.00;1.00;;;;;4.61;79.65;100765.34;5054650;28;11114;-67
2022/12/08 06:31:08;;;;;;;;;1.00;0.00;;;;;4.58;79.79;100750.53;5057569;28;11124;-66
2022/12/08 06:33:35;;;;;;;;;0.00;0.00;;;;;4.59;79.67;100759.34;5052613;28;11238;-67
2022/12/08 06:36:03;;;;;;;;;0.00;0.00;;;;;4.58;80.05;100755.84;5048209;28;11440;-67
2022/12/08 06:38:30;;;;;;;;;0.00;0.00;;;;;4.56;79.71;100757.84;5060269;28;11195;-67
2022/12/08 06:40:57;;;;;;;;;0.00;0.00;;;;;4.56;79.83;100768.50;5054961;28;11196;-67
2022/12/08 06:43:24;;;;;;;;;0.00;0.00;;;;;4.56;79.98;100765.81;5050724;28;11202;-67
2022/12/08 06:45:51;;;;;;;;;1.00;1.00;;;;;4.55;79.31;100766.00;5041620;28;11980;-64
2022/12/08 06:48:18;;;;;;;;;0.50;0.50;;;;;4.52;79.86;100764.47;5041232;28;11138;-66
2022/12/08 06:50:45;;;;;;;;;0.00;0.00;;;;;4.53;79.46;100767.97;5051909;28;11144;-67
2022/12/08 06:53:15;;;;;;;;;0.00;0.00;;;;;4.50;79.73;100768.28;5059132;28;11192;-66
2022/12/08 06:55:47;;;;;;;;;0.00;0.00;;;;;4.50;79.62;100770.94;5055719;28;11302;-66
2022/12/08 06:58:25;;;;;;;;;0.00;0.00;;;;;4.47;79.41;100772.94;5055952;28;11890;-68
2022/12/08 07:00:52;;;;;;;;;0.00;0.00;;;;;4.46;79.45;100773.09;5043263;28;11510;-67
2022/12/08 07:03:18;;;;;;;;;0.00;0.00;;;;;4.43;79.53;100768.91;5042447;28;11448;-65
2022/12/08 07:05:45;;;;;;;;;0.00;0.00;;;;;4.39;79.58;100772.88;5039718;28;11122;-68
2022/12/08 07:08:11;;;;;;;;;0.75;0.00;;;;;4.38;79.79;100779.22;5030145;28;11513;-67
2022/12/08 07:10:38;;;;;;;;;0.25;0.00;;;;;4.40;79.40;100779.03;5044536;28;11432;-66
2022/12/08 07:13:05;;;;;;;;;0.00;0.00;;;;;4.39;79.72;100782.72;5057431;28;11123;-65
2022/12/08 07:15:31;;;;;;;;;0.00;0.00;;;;;4.36;79.68;100796.34;5053204;28;11086;-66
2022/12/08 07:17:57;;;;;;;;;0.00;0.00;;;;;4.34;79.52;100791.19;5054294;28;11147;-65
2022/12/08 07:20:26;;;;;;;;;0.50;0.00;;;;;4.34;79.53;100793.00;5048385;28;11254;-64
2022/12/08 07:22:52;;;;;;;;;0.75;0.75;;;;;4.33;79.44;100792.16;5054519;28;11194;-66
2022/12/08 07:25:19;;;;;;;;;0.00;0.00;;;;;4.31;79.53;100793.31;5057025;28;11097;-64
2022/12/08 07:27:46;;;;;;;;;0.00;0.00;;;;;4.32;79.98;100795.81;5042761;28;11455;-65
2022/12/08 07:30:13;;;;;;;;;0.00;0.00;;;;;4.33;79.62;100800.13;5035765;28;11262;-65
2022/12/08 07:32:39;;;;;;;;;1.00;1.00;;;;;4.33;79.81;100793.97;5036909;28;11127;-65
2022/12/08 07:35:07;;;;;;;;;0.00;0.00;;;;;4.32;79.72;100797.63;5034526;28;11120;-65
2022/12/08 07:37:34;;;;;;;;;0.00;0.00;;;;;4.31;80.20;100803.97;5035933;28;11427;-66
2022/12/08 07:40:01;;;;;;;;;0.25;0.00;;;;;4.32;79.79;100797.63;5044482;28;11507;-66
2022/12/08 07:42:28;;;;;;;;;0.00;0.00;;;;;4.30;79.47;100792.47;5045787;28;11452;-65
2022/12/08 07:44:54;;;;;;;;;0.00;0.00;;;;;4.30;80.04;100780.97;5040097;28;11155;-65
2022/12/08 07:47:21;;;;;;;;;0.25;0.25;;;;;4.32;79.57;100784.31;5051351;28;11161;-66
2022/12/08 07:49:47;;;;;;;;;0.00;0.00;;;;;4.30;79.74;100775.66;5050228;28;11203;-66
2022/12/08 07:52:14;;;;;;;;;0.00;0.00;;;;;4.29;79.92;100774.78;5053523;28;11204;-66
2022/12/08 07:54:40;;;;;;;;;0.00;0.00;;;;;4.29;79.96;100785.44;5047292;28;11469;-66
2022/12/08 07:57:08;;;;;;;;;0.75;0.00;;;;;4.27;79.88;100786.63;5055893;28;11791;-65
2022/12/08 07:59:34;;;;;;;;;0.00;0.00;;;;;4.25;79.74;100768.09;5046043;28;11433;-64
2022/12/08 08:02:01;;;;;;;;;0.00;0.00;;;;;4.29;80.26;100774.78;5046521;28;11435;-66
2022/12/08 08:04:50;;;;;;;;;1.00;1.00;;;;;4.32;80.08;100773.66;5050695;28;11478;-66
2022/12/08 08:07:17;;;;;;;;;0.00;0.00;;;;;4.33;80.37;100768.16;5034137;28;13700;-67
2022/12/08 08:09:44;;;;;;;;;0.50;0.00;;;;;4.35;80.57;100774.19;5045934;28;11462;-66
2022/12/08 08:12:10;;;;;;;;;0.00;0.00;;;;;4.38;80.32;100778.38;5045766;28;12168;-67
2022/12/08 08:14:58;;;;;;;;;0.00;0.00;;;;;4.39;80.26;100780.03;5044620;28;11154;-67
2022/12/08 08:17:24;;;;;;;;;0.00;0.00;;;;;4.41;80.19;100776.22;5049905;28;11457;-68
2022/12/08 08:19:51;;;;;;;;;0.00;0.00;;;;;4.42;79.99;100785.91;5051089;28;12213;-68
2022/12/08 08:22:17;;;;;;;;;0.00;0.00;;;;;4.42;79.93;100788.56;5051008;28;11546;-66
2022/12/08 08:24:44;;;;;;;;;0.00;0.00;;;;;4.44;79.97;100799.91;5048483;28;11215;-66
2022/12/08 08:27:11;;;;;;;;;0.00;0.00;;;;;4.44;80.00;100794.56;5044259;28;11441;-67
2022/12/08 08:29:37;;;;;;;;;0.00;0.00;;;;;4.45;80.19;100796.22;5033510;28;11442;-66
2022/12/08 08:32:03;;;;;;;;;1.25;0.25;;;;;4.47;80.04;100791.59;5041358;28;11405;-69
2022/12/08 08:34:30;;;;;;;;;0.00;0.00;;;;;4.45;79.63;100790.91;5047730;28;11487;-66
2022/12/08 08:36:56;;;;;;;;;1.00;0.00;;;;;4.47;79.59;100786.25;5049169;28;11433;-67
2022/12/08 08:39:23;;;;;;;;;0.00;0.00;;;;;4.49;79.87;100782.59;5054064;28;11403;-67
2022/12/08 08:41:49;;;;;;;;;0.00;0.00;;;;;4.51;79.98;100784.13;5047937;28;11417;-68
2022/12/08 08:44:16;;;;;;;;;0.25;0.25;;;;;4.52;79.96;100784.97;5048763;28;11137;-68
2022/12/08 08:46:42;;;;;;;;;0.00;0.00;;;;;4.62;80.91;100775.88;5040812;28;11191;-66
2022/12/08 08:49:09;;;;;;;;;1.75;1.00;;;;;4.66;80.17;100785.22;5051767;28;11215;-68
2022/12/08 08:51:37;;;;;;;;;0.00;0.00;;;;;4.63;80.15;100782.88;5051539;28;11422;-68
2022/12/08 08:54:03;;;;;;;;;0.50;0.00;;;;;4.60;79.52;100785.00;5052323;28;11186;-68
2022/12/08 08:56:30;;;;;;;;;0.00;0.00;;;;;4.56;79.71;100789.00;5046686;28;11938;-68
2022/12/08 08:58:57;;;;;;;;;0.00;0.00;;;;;4.58;80.17;100792.34;5047719;28;11239;-66
2022/12/08 09:01:25;;;;;;;;;1.00;1.00;;;;;4.60;79.95;100798.34;5051210;28;11436;-68
2022/12/08 09:03:53;;;;;;;;;1.50;0.00;;;;;4.61;80.27;100794.69;5047091;28;11112;-66
2022/12/08 09:06:20;;;;;;;;;1.00;0.00;;;;;4.61;80.44;100798.19;5049431;28;11104;-64
2022/12/08 09:08:47;;;;;;;;;0.00;0.00;;;;;4.64;80.26;100807.69;5044273;28;11036;-64
2022/12/08 09:11:15;;;;;;;;;1.00;0.00;;;;;4.66;80.28;100813.72;5050194;28;11113;-66
2022/12/08 09:13:41;;;;;;;;;0.00;0.00;;;;;4.60;79.82;100812.50;5049644;28;11132;-64
2022/12/08 09:16:09;;;;;;;;;0.00;0.00;;;;;4.57;79.61;100814.66;5049453;28;11069;-66
2022/12/08 09:18:36;;;;;;;;;0.25;0.25;;;;;4.54;79.69;100809.63;5045213;28;11807;-67
2022/12/08 09:21:04;;;;;;;;;1.25;1.25;;;;;4.50;79.74;100805.59;5046431;28;11090;-67
2022/12/08 09:23:30;;;;;;;;;1.00;0.00;;;;;4.45;79.68;100796.22;5048605;28;11441;-67
2022/12/08 09:26:02;;;;;;;;;0.25;0.25;;;;;4.43;79.57;100800.06;5036743;28;11510;-66
2022/12/08 09:28:28;;;;;;;;;0.00;0.00;;;;;4.43;79.61;100792.91;5032956;28;11925;-67
2022/12/08 09:30:55;;;;;;;;;0.00;0.00;;;;;4.47;79.93;100793.44;5041672;28;11419;-67
2022/12/08 09:33:21;;;;;;;;;1.00;0.00;;;;;4.49;79.47;100790.59;5040746;28;11234;-66
2022/12/08 09:35:48;;;;;;;;;0.75;0.75;;;;;4.50;79.29;100793.13;5049165;28;11590;-65
2022/12/08 09:38:14;;;;;;;;;0.25;0.25;;;;;4.50;79.45;100793.13;5050128;28;11445;-67
2022/12/08 09:40:53;;;;;;;;;1.25;1.25;;;;;4.52;79.70;100790.28;5049457;28;11867;-66
2022/12/08 09:43:50;;;;;;;;;0.25;0.25;;;;;4.53;79.71;100800.78;5054625;28;11189;-67
2022/12/08 09:46:18;;;;;;;;;0.00;0.00;;;;;4.51;79.43;100799.28;5042864;28;11114;-66
2022/12/08 09:48:54;;;;;;;;;1.00;0.00;;;;;4.45;79.63;100798.91;5045885;28;11539;-67
2022/12/08 09:51:26;;;;;;;;;0.00;0.00;;;;;4.44;79.40;100799.06;5043961;28;11485;-67
2022/12/08 09:53:58;;;;;;;;;0.50;0.00;;;;;4.44;79.67;100801.72;5058890;28;11180;-66
2022/12/08 09:56:35;;;;;;;;;0.00;0.00;;;;;4.41;79.46;100794.88;5045170;28;11110;-67
2022/12/08 09:59:13;;;;;;;;;0.75;0.00;;;;;4.43;79.70;100797.41;5047239;28;11297;-65
2022/12/08 10:01:42;;;;;;;;;0.00;0.00;;;;;4.40;79.41;100803.03;5046189;28;11191;-66
2022/12/08 10:04:24;;;;;;;;;0.00;0.00;;;;;4.35;79.77;100800.00;5045654;28;11043;-65
2022/12/08 10:07:04;;;;;;;;;0.00;0.00;;;;;4.36;79.41;100796.34;5047417;28;11075;-65
2022/12/08 10:09:33;;;;;;;;;0.00;0.00;;;;;4.33;79.66;100789.47;5042591;28;11102;-68
2022/12/08 10:12:25;;;;;;;;;0.50;0.50;;;;;4.29;79.63;100787.28;5050863;28;11193;-68
2022/12/08 10:15:22;;;;;;;;;4.50;4.50;;;;;4.24;79.82;100782.41;5005600;28;11131;-66
2022/12/08 10:17:52;;;;;;;;;0.00;0.00;;;;;4.19;79.74;100780.22;5055171;28;12207;-67
2022/12/08 10:20:23;;;;;;;;;0.00;0.00;;;;;4.23;80.12;100775.44;5037282;28;11438;-68
2022/12/08 10:23:01;;;;;;;;;2.00;0.00;;;;;4.20;80.13;100765.91;5047719;28;11450;-66
2022/12/08 10:25:35;;;;;;;;;0.00;0.00;;;;;4.18;80.01;100761.75;5049606;28;11466;-66
2022/12/08 10:28:01;;;;;;;;;0.25;0.25;;;;;4.21;80.21;100761.41;5045109;28;11496;-67
2022/12/08 10:30:30;;;;;;;;;0.50;0.50;;;;;4.24;80.48;100755.78;5049380;28;11470;-66
2022/12/08 10:32:57;;;;;;;;;0.00;0.00;;;;;4.25;80.13;100753.94;5045622;28;11464;-69
2022/12/08 10:35:24;;;;;;;;;0.00;0.00;;;;;4.23;79.62;100754.13;5043157;28;11180;-67
2022/12/08 10:37:58;;;;;;;;;0.00;0.00;;;;;4.20;79.80;100749.91;5049137;28;11880;-66
2022/12/08 10:40:34;;;;;;;;;0.00;0.00;;;;;4.20;79.80;100749.09;5045725;28;11481;-67
2022/12/08 10:43:16;;;;;;;;;0.00;0.00;;;;;4.23;79.97;100751.44;5046688;28;11455;-66
2022/12/08 10:45:43;;;;;;;;;0.00;0.00;;;;;4.28;79.79;100742.97;5048489;28;11425;-67
2022/12/08 10:48:38;;;;;;;;;2.00;0.00;;;;;4.31;79.62;100732.84;5044796;28;11230;-67
2022/12/08 10:51:21;;;;;;;;;0.25;0.25;;;;;4.27;79.40;100733.31;5047925;28;11453;-66
2022/12/08 10:53:47;;;;;;;;;0.00;0.00;;;;;4.29;79.40;100739.31;5042410;28;11310;-66
2022/12/08 10:56:15;;;;;;;;;0.00;0.00;;;;;4.26;79.09;100729.84;5048416;28;11202;-65
2022/12/08 10:58:44;;;;;;;;;0.00;0.00;;;;;4.32;79.39;100734.53;5058570;28;11453;-68
2022/12/08 11:01:20;;;;;;;;;0.00;0.00;;;;;4.36;79.32;100738.53;5053286;28;11524;-66
2022/12/08 11:04:01;;;;;;;;;0.00;0.00;;;;;4.38;78.31;100736.56;5046190;28;11208;-64
2022/12/08 11:06:27;;;;;;;;;0.00;0.00;;;;;4.41;79.23;100735.41;5047539;28;11442;-68
2022/12/08 11:08:55;;;;;;;;;1.00;0.00;;;;;4.40;78.86;100734.56;5050595;28;11567;-63
2022/12/08 11:11:49;;;;;;;;;0.00;0.00;;;;;4.41;78.75;100725.56;5039820;28;11461;-67
2022/12/08 11:14:24;;;;;;;;;0.00;0.00;;;;;4.54;79.33;100726.97;5037863;28;11185;-67
2022/12/08 11:17:03;;;;;;;;;0.00;0.00;;;;;4.60;78.86;100729.88;5038883;28;12147;-63
2022/12/08 11:19:30;;;;;;;;;0.75;0.75;;;;;4.57;78.34;100721.34;5040900;28;11435;-68
2022/12/08 11:21:56;;;;;;;;;0.00;0.00;;;;;4.59;78.57;100719.38;5051737;28;11622;-66
2022/12/08 11:24:26;;;;;;;;;0.00;0.00;;;;;4.60;78.89;100721.88;5060051;28;12174;-66
2022/12/08 11:27:01;;;;;;;;;0.00;0.00;;;;;4.62;78.58;100711.91;5051383;28;11172;-66
2022/12/08 11:29:31;;;;;;;;;0.00;0.00;;;;;4.64;78.48;100717.06;5046624;28;11195;-67
2022/12/08 11:32:06;;;;;;;;;4.00;1.00;;;;;4.61;78.37;100709.38;5036334;28;11121;-66
2022/12/08 11:35:01;;;;;;;;;1.00;1.00;;;;;4.56;78.43;100709.03;5049373;28;11439;-68
2022/12/08 11:37:34;;;;;;;;;1.00;1.00;;;;;4.60;78.50;100707.69;5032505;28;12038;-66
2022/12/08 11:40:06;;;;;;;;;1.00;1.00;;;;;4.61;78.54;100704.88;5061813;28;11459;-67
2022/12/08 11:42:43;;;;;;;;;2.00;2.00;;;;;4.57;78.13;100711.50;5048740;28;12274;-67
2022/12/08 11:45:23;;;;;;;;;3.00;1.25;;;;;4.58;78.71;100705.22;5043343;28;11428;-67
2022/12/08 11:48:03;;;;;;;;;1.75;1.75;;;;;4.56;78.68;100715.19;5050718;28;11477;-66
2022/12/08 11:51:10;;;;;;;;;2.00;2.00;;;;;4.49;78.86;100711.47;5030545;28;11478;-66
2022/12/08 11:54:02;;;;;;;;;0.50;0.50;;;;;4.53;78.70;100704.00;4981827;28;11404;-67
2022/12/08 11:56:35;;;;;;;;;1.00;1.00;;;;;4.57;78.72;100705.34;5038258;28;12271;-66